Whiteface, Texas
Current Conditions -  °F | °C
As of 11:53 PM on Tuesday 21 Oct 2014 (Local Time) from KLBB Reporting Station
Overcast Overcast  
Wind Chill: 65°   Ceiling: 7500
Heat Index: 65°   Visibility: 10mi
Dew Point: 51°   Wind: 9mph
Humidity: 61%   Direction: 170°S
Pressure: 30.09"   Gusts: NA
Location:  33.6°N, 102.61°W
Report Text: KLBB 220453Z 17008KT 10SM FEW060 OVC075 18/11 A3009 RMK AO2 SLP149 T01830106
Loading
Personal Weather Stations






























Interactive Weather Map
Tropical Storm Tracking
New forecast layout! Learn more

10-Day Weather Forecast

Advertisements
Track Severe Weather on mobile